createdAt,value
2018-04-15T00:00:23.200Z,11.86
2018-04-15T00:02:16.493Z,11.94
2018-04-15T00:03:16.403Z,11.94
2018-04-15T00:05:09.676Z,11.89
2018-04-15T00:06:09.610Z,11.85
2018-04-15T00:08:02.898Z,11.91
2018-04-15T00:09:02.814Z,11.76
2018-04-15T00:10:56.084Z,11.70
2018-04-15T00:11:56.018Z,11.73
2018-04-15T00:13:49.308Z,11.75
2018-04-15T00:14:49.224Z,11.71
2018-04-15T00:16:43.495Z,11.75
2018-04-15T00:17:43.424Z,11.73
2018-04-15T00:19:36.714Z,11.79
2018-04-15T00:20:36.625Z,11.75
2018-04-15T00:22:29.916Z,11.82
2018-04-15T00:23:29.832Z,11.89
2018-04-15T00:25:23.107Z,11.88
2018-04-15T00:26:23.034Z,11.88
2018-04-15T00:28:16.335Z,11.91
2018-04-15T00:29:16.249Z,11.89
2018-04-15T00:31:09.519Z,11.84
2018-04-15T00:32:09.453Z,11.81
2018-04-15T00:34:02.741Z,11.82
2018-04-15T00:35:02.656Z,11.76
2018-04-15T00:36:55.918Z,11.85
2018-04-15T00:37:55.852Z,11.89
2018-04-15T00:39:49.141Z,11.85
2018-04-15T00:40:49.054Z,11.81
2018-04-15T00:42:42.342Z,11.75
2018-04-15T00:43:42.261Z,11.71
2018-04-15T00:45:35.527Z,11.88
2018-04-15T00:46:35.461Z,11.85
2018-04-15T00:48:28.754Z,11.86
2018-04-15T00:49:28.664Z,11.84
2018-04-15T00:51:21.932Z,11.82
2018-04-15T00:52:21.866Z,11.79
2018-04-15T00:54:15.154Z,11.82
2018-04-15T00:55:15.069Z,11.76
2018-04-15T00:57:08.333Z,11.71
2018-04-15T00:58:08.269Z,11.73
2018-04-15T01:00:01.556Z,11.76
2018-04-15T01:01:01.470Z,11.71
2018-04-15T01:02:54.758Z,11.75
2018-04-15T01:03:54.675Z,11.73
2018-04-15T01:05:47.944Z,11.71
2018-04-15T01:06:47.878Z,11.75
2018-04-15T01:08:41.165Z,11.84
2018-04-15T01:09:41.081Z,11.71
2018-04-15T01:11:34.352Z,11.78
2018-04-15T01:12:34.288Z,11.78
2018-04-15T01:14:27.574Z,11.75
2018-04-15T01:15:27.492Z,11.76
2018-04-15T01:17:20.750Z,11.70
2018-04-15T01:18:20.686Z,11.70
2018-04-15T01:20:13.973Z,11.59
2018-04-15T01:21:13.887Z,11.71
2018-04-15T01:23:07.174Z,11.64
2018-04-15T01:24:07.088Z,11.73
2018-04-15T01:26:00.357Z,11.68
2018-04-15T01:27:00.290Z,11.67
2018-04-15T01:28:53.580Z,11.66
2018-04-15T01:29:53.493Z,11.61
2018-04-15T01:31:46.764Z,11.63
2018-04-15T01:32:46.701Z,11.61
2018-04-15T01:34:39.987Z,11.70
2018-04-15T01:35:39.902Z,11.73
2018-04-15T01:37:33.174Z,11.68
2018-04-15T01:38:33.107Z,11.73
2018-04-15T01:40:26.394Z,11.70
2018-04-15T01:41:26.309Z,11.70
2018-04-15T01:43:19.598Z,11.71
2018-04-15T01:44:19.513Z,11.68
2018-04-15T01:46:12.783Z,11.71
2018-04-15T01:47:12.715Z,11.75
2018-04-15T01:49:06.007Z,11.68
2018-04-15T01:50:05.924Z,11.67
2018-04-15T01:51:59.202Z,11.66
2018-04-15T01:52:59.126Z,11.75
2018-04-15T01:54:52.414Z,11.75
2018-04-15T01:55:52.329Z,11.71
2018-04-15T01:57:45.602Z,11.73
2018-04-15T01:58:45.538Z,11.68
2018-04-15T02:00:38.826Z,11.75
2018-04-15T02:01:38.739Z,11.75
2018-04-15T02:03:32.026Z,11.71
2018-04-15T02:04:31.944Z,11.68
2018-04-15T02:06:25.215Z,11.75
2018-04-15T02:07:25.147Z,11.70
2018-04-15T02:09:18.435Z,11.76
2018-04-15T02:10:18.352Z,11.79
2018-04-15T02:12:11.621Z,11.86
2018-04-15T02:13:11.557Z,11.78
2018-04-15T02:15:04.844Z,11.79
2018-04-15T02:16:04.760Z,11.71
2018-04-15T02:17:58.036Z,11.60
2018-04-15T02:18:57.965Z,11.63
2018-04-15T02:20:51.255Z,11.63
2018-04-15T02:21:51.169Z,11.64
2018-04-15T02:23:44.458Z,11.64
2018-04-15T02:24:44.373Z,11.64
2018-04-15T02:26:37.644Z,11.51
2018-04-15T02:27:37.578Z,11.49
2018-04-15T02:29:30.866Z,11.57
2018-04-15T02:30:30.788Z,11.53
2018-04-15T02:32:25.054Z,11.48
2018-04-15T02:33:24.987Z,11.52
2018-04-15T02:35:18.335Z,11.49
2018-04-15T02:36:18.253Z,11.56
2018-04-15T02:38:11.529Z,11.48
2018-04-15T02:39:11.454Z,11.39
2018-04-15T02:41:04.747Z,11.46
2018-04-15T02:42:04.659Z,11.41
2018-04-15T02:43:57.949Z,11.41
2018-04-15T02:44:57.862Z,11.39
2018-04-15T02:46:51.123Z,11.38
2018-04-15T02:47:51.057Z,11.39
2018-04-15T02:49:44.351Z,11.39
2018-04-15T02:50:44.259Z,11.42
2018-04-15T02:52:37.532Z,11.41
2018-04-15T02:53:37.465Z,11.42
2018-04-15T02:55:30.758Z,11.48
2018-04-15T02:56:30.670Z,11.34
2018-04-15T02:58:23.945Z,11.52
2018-04-15T02:59:23.875Z,11.38
2018-04-15T03:01:17.166Z,11.41
2018-04-15T03:02:17.078Z,11.42
2018-04-15T03:04:10.367Z,11.46
2018-04-15T03:05:10.300Z,11.42
2018-04-15T03:07:03.659Z,11.38
2018-04-15T03:08:03.481Z,11.35
2018-04-15T03:09:56.769Z,11.42
2018-04-15T03:10:56.684Z,11.43
2018-04-15T03:12:49.951Z,11.43
2018-04-15T03:13:49.885Z,11.39
2018-04-15T03:15:43.174Z,11.39
2018-04-15T03:16:43.089Z,11.39
2018-04-15T03:18:37.357Z,11.42
2018-04-15T03:19:37.293Z,11.46
2018-04-15T03:21:30.583Z,11.49
2018-04-15T03:22:30.498Z,11.43
2018-04-15T03:24:23.788Z,11.42
2018-04-15T03:25:23.702Z,11.34
2018-04-15T03:27:16.964Z,11.49
2018-04-15T03:28:16.897Z,11.38
2018-04-15T03:30:10.187Z,11.39
2018-04-15T03:31:10.101Z,11.41
2018-04-15T03:33:03.375Z,11.38
2018-04-15T03:34:03.306Z,11.39
2018-04-15T03:35:56.594Z,11.41
2018-04-15T03:36:56.509Z,11.38
2018-04-15T03:38:49.780Z,11.38
2018-04-15T03:39:49.713Z,11.34
2018-04-15T03:41:43.001Z,11.34
2018-04-15T03:42:42.916Z,11.24
2018-04-15T03:44:36.205Z,11.30
2018-04-15T03:45:36.119Z,11.27
2018-04-15T03:47:29.383Z,11.27
2018-04-15T03:48:29.314Z,11.27
2018-04-15T03:50:22.602Z,11.35
2018-04-15T03:51:22.517Z,11.26
2018-04-15T03:53:15.788Z,11.20
2018-04-15T03:54:15.720Z,11.20
2018-04-15T03:56:09.010Z,11.23
2018-04-15T03:57:08.923Z,11.13
2018-04-15T03:59:02.193Z,11.18
2018-04-15T04:00:02.124Z,11.08
2018-04-15T04:01:55.410Z,10.98
2018-04-15T04:02:55.327Z,10.98
2018-04-15T04:04:48.725Z,10.84
2018-04-15T04:05:48.527Z,10.84
2018-04-15T04:07:41.786Z,10.83
2018-04-15T04:08:41.719Z,10.70
2018-04-15T04:10:35.003Z,10.76
2018-04-15T04:11:34.918Z,10.76
2018-04-15T04:13:28.182Z,10.72
2018-04-15T04:14:28.117Z,10.69
2018-04-15T04:16:21.404Z,10.73
2018-04-15T04:17:21.317Z,10.72
2018-04-15T04:19:14.584Z,10.61
2018-04-15T04:20:14.529Z,10.63
2018-04-15T04:22:07.800Z,10.55
2018-04-15T04:23:07.713Z,10.47
2018-04-15T04:25:00.997Z,10.47
2018-04-15T04:26:00.910Z,10.47
2018-04-15T04:27:54.177Z,10.49
2018-04-15T04:28:54.107Z,10.47
2018-04-15T04:30:47.424Z,10.49
2018-04-15T04:31:47.307Z,10.52
2018-04-15T04:33:40.571Z,10.47
2018-04-15T04:34:40.503Z,10.46
2018-04-15T04:36:33.786Z,10.39
2018-04-15T04:37:33.701Z,10.33
2018-04-15T04:39:26.965Z,10.33
2018-04-15T04:40:26.897Z,10.42
2018-04-15T04:42:20.183Z,10.42
2018-04-15T04:43:20.093Z,10.41
2018-04-15T04:45:13.380Z,10.42
2018-04-15T04:46:13.290Z,10.41
2018-04-15T04:48:06.559Z,10.44
2018-04-15T04:49:06.487Z,10.41
2018-04-15T04:50:59.770Z,10.42
2018-04-15T04:51:59.685Z,10.42
2018-04-15T04:53:52.951Z,10.33
2018-04-15T04:54:52.880Z,10.39
2018-04-15T04:56:46.158Z,10.36
2018-04-15T04:57:46.073Z,10.36
2018-04-15T04:59:39.331Z,10.42
2018-04-15T05:00:39.266Z,10.41
2018-04-15T05:02:32.548Z,10.41
2018-04-15T05:03:32.461Z,10.39
2018-04-15T05:05:25.744Z,10.36
2018-04-15T05:06:25.658Z,10.28
2018-04-15T05:08:18.922Z,10.29
2018-04-15T05:09:18.854Z,10.35
2018-04-15T05:11:12.137Z,10.26
2018-04-15T05:12:12.051Z,10.31
2018-04-15T05:14:05.319Z,10.38
2018-04-15T05:15:05.253Z,10.39
2018-04-15T05:16:58.527Z,10.39
2018-04-15T05:17:58.439Z,10.39
2018-04-15T05:19:51.813Z,10.39
2018-04-15T05:20:51.635Z,10.38
2018-04-15T05:22:44.923Z,10.46
2018-04-15T05:23:44.835Z,10.29
2018-04-15T05:25:38.120Z,10.38
2018-04-15T05:26:38.032Z,10.39
2018-04-15T05:28:31.295Z,10.33
2018-04-15T05:29:31.227Z,10.38
2018-04-15T05:31:24.512Z,10.32
2018-04-15T05:32:24.423Z,10.39
2018-04-15T05:34:17.690Z,10.35
2018-04-15T05:35:17.620Z,10.33
2018-04-15T05:37:10.904Z,10.39
2018-04-15T05:38:10.820Z,10.46
2018-04-15T05:40:04.084Z,10.46
2018-04-15T05:41:04.014Z,10.47
2018-04-15T05:42:57.297Z,10.38
2018-04-15T05:43:57.210Z,10.46
2018-04-15T05:45:50.493Z,10.55
2018-04-15T05:46:50.405Z,10.54
2018-04-15T05:48:43.674Z,10.66
2018-04-15T05:49:43.600Z,10.59
2018-04-15T05:51:36.896Z,10.58
2018-04-15T05:52:36.799Z,10.59
2018-04-15T05:54:30.173Z,10.65
2018-04-15T05:55:30.000Z,10.58
2018-04-15T05:57:23.270Z,10.59
2018-04-15T05:58:23.181Z,10.65
2018-04-15T06:00:16.445Z,10.70
2018-04-15T06:01:16.384Z,10.75
2018-04-15T06:03:09.661Z,10.80
2018-04-15T06:04:09.575Z,10.79
2018-04-15T06:06:02.858Z,10.80
2018-04-15T06:07:02.771Z,10.79
2018-04-15T06:08:56.145Z,10.72
2018-04-15T06:09:55.970Z,10.77
2018-04-15T06:11:49.253Z,10.87
2018-04-15T06:12:49.166Z,10.95
2018-04-15T06:14:42.430Z,10.97
2018-04-15T06:15:42.366Z,10.91
2018-04-15T06:17:35.640Z,10.92
2018-04-15T06:18:35.553Z,10.97
2018-04-15T06:20:28.818Z,10.94
2018-04-15T06:21:28.757Z,11.02
2018-04-15T06:23:22.035Z,11.13
2018-04-15T06:24:21.947Z,11.16
2018-04-15T06:26:15.233Z,11.18
2018-04-15T06:27:15.145Z,11.08
2018-04-15T06:29:08.411Z,11.06
2018-04-15T06:30:08.341Z,11.08
2018-04-15T06:32:01.628Z,11.24
2018-04-15T06:33:01.596Z,11.06
2018-04-15T06:34:54.807Z,11.20
2018-04-15T06:35:54.738Z,11.16
2018-04-15T06:37:48.022Z,11.20
2018-04-15T06:38:47.937Z,11.21
2018-04-15T06:40:41.202Z,11.27
2018-04-15T06:41:41.137Z,11.27
2018-04-15T06:43:34.420Z,11.31
2018-04-15T06:44:34.336Z,11.30
2018-04-15T06:46:27.621Z,11.42
2018-04-15T06:47:27.534Z,11.38
2018-04-15T06:49:20.827Z,11.43
2018-04-15T06:50:20.732Z,11.46
2018-04-15T06:52:14.019Z,11.41
2018-04-15T06:53:13.933Z,11.51
2018-04-15T06:55:07.308Z,11.39
2018-04-15T06:56:07.134Z,11.57
2018-04-15T06:58:00.419Z,11.52
2018-04-15T06:59:00.331Z,11.61
2018-04-15T07:00:53.595Z,11.53
2018-04-15T07:01:53.528Z,11.59
2018-04-15T07:03:46.814Z,11.59
2018-04-15T07:04:46.728Z,11.59
2018-04-15T07:06:40.011Z,11.68
2018-04-15T07:07:39.928Z,11.59
2018-04-15T07:09:33.195Z,11.67
2018-04-15T07:10:33.124Z,11.67
2018-04-15T07:12:26.410Z,11.78
2018-04-15T07:13:26.323Z,11.81
2018-04-15T07:15:19.593Z,11.85
2018-04-15T07:16:19.529Z,11.85
2018-04-15T07:18:12.812Z,11.89
2018-04-15T07:19:12.725Z,11.86
2018-04-15T07:21:05.996Z,11.88
2018-04-15T07:22:05.924Z,12.00
2018-04-15T07:23:59.212Z,11.98
2018-04-15T07:24:59.126Z,12.05
2018-04-15T07:26:52.409Z,12.11
2018-04-15T07:27:52.319Z,12.08
2018-04-15T07:29:45.587Z,12.20
2018-04-15T07:30:45.519Z,12.22
2018-04-15T07:32:38.913Z,12.33
2018-04-15T07:33:38.757Z,12.37
2018-04-15T07:35:32.093Z,12.34
2018-04-15T07:36:31.984Z,12.40
2018-04-15T07:38:25.196Z,12.52
2018-04-15T07:39:25.111Z,12.56
2018-04-15T07:41:18.366Z,12.55
2018-04-15T07:42:18.305Z,12.63
2018-04-15T07:44:11.589Z,12.52
2018-04-15T07:45:11.503Z,12.55
2018-04-15T07:47:04.780Z,12.66
2018-04-15T07:48:04.696Z,12.65
2018-04-15T07:49:57.954Z,12.65
2018-04-15T07:50:57.891Z,12.66
2018-04-15T07:52:51.285Z,12.70
2018-04-15T07:53:51.082Z,12.76
2018-04-15T07:55:44.341Z,12.88
2018-04-15T07:56:44.275Z,12.96
2018-04-15T07:58:37.556Z,13.14
2018-04-15T07:59:37.470Z,13.14
2018-04-15T08:01:30.729Z,13.16
2018-04-15T08:02:30.665Z,13.21
2018-04-15T08:04:23.944Z,13.29
2018-04-15T08:05:23.864Z,13.35
2018-04-15T08:07:17.258Z,13.45
2018-04-15T08:08:17.058Z,13.48
2018-04-15T08:10:10.321Z,13.57
2018-04-15T08:11:10.563Z,13.62
2018-04-15T08:13:03.653Z,13.79
2018-04-15T08:14:03.451Z,13.94
2018-04-15T08:15:56.829Z,13.95
2018-04-15T08:16:56.653Z,14.28
2018-04-15T08:18:49.930Z,14.85
2018-04-15T08:19:49.848Z,15.05
2018-04-15T08:21:43.121Z,15.35
2018-04-15T08:22:43.057Z,15.35
2018-04-15T08:24:36.341Z,15.31
2018-04-15T08:25:36.259Z,15.22
2018-04-15T08:27:29.547Z,15.43
2018-04-15T08:28:29.471Z,15.59
2018-04-15T08:30:22.733Z,15.74
2018-04-15T08:31:22.670Z,15.74
2018-04-15T08:33:15.966Z,15.71
2018-04-15T08:34:15.885Z,15.62
2018-04-15T08:36:09.162Z,15.59
2018-04-15T08:37:09.101Z,15.70
2018-04-15T08:39:02.502Z,15.59
2018-04-15T08:40:02.322Z,15.56
2018-04-15T08:41:55.594Z,15.65
2018-04-15T08:42:55.532Z,15.40
2018-04-15T08:44:48.935Z,15.40
2018-04-15T08:45:48.757Z,15.41
2018-04-15T08:47:42.050Z,15.62
2018-04-15T08:48:41.972Z,15.45
2018-04-15T08:50:35.249Z,15.55
2018-04-15T08:51:35.186Z,15.53
2018-04-15T08:53:28.476Z,15.65
2018-04-15T08:54:28.409Z,15.62
2018-04-15T08:56:21.778Z,15.49
2018-04-15T08:57:21.604Z,15.53
2018-04-15T08:59:14.892Z,15.49
2018-04-15T09:00:14.811Z,15.34
2018-04-15T09:02:08.194Z,15.44
2018-04-15T09:03:08.021Z,15.47
2018-04-15T09:05:01.307Z,15.38
2018-04-15T09:06:01.228Z,15.53
2018-04-15T09:07:54.519Z,15.77
2018-04-15T09:08:54.436Z,15.92
2018-04-15T09:10:47.703Z,16.42
2018-04-15T09:11:47.643Z,16.88
2018-04-15T09:13:42.240Z,17.22
2018-04-15T09:14:42.158Z,17.52
2018-04-15T09:16:35.430Z,17.73
2018-04-15T09:17:35.367Z,17.77
2018-04-15T09:19:28.660Z,17.39
2018-04-15T09:20:28.581Z,17.28
2018-04-15T09:22:21.853Z,17.46
2018-04-15T09:23:21.794Z,17.31
2018-04-15T09:25:15.085Z,17.58
2018-04-15T09:26:15.004Z,17.39
2018-04-15T09:28:08.410Z,18.29
2018-04-15T09:29:08.278Z,18.34
2018-04-15T09:31:01.543Z,17.76
2018-04-15T09:32:01.484Z,17.73
2018-04-15T09:33:54.783Z,18.19
2018-04-15T09:34:54.708Z,17.54
2018-04-15T09:36:47.992Z,16.99
2018-04-15T09:37:47.929Z,17.54
2018-04-15T09:39:41.242Z,18.10
2018-04-15T09:40:41.166Z,18.21
2018-04-15T09:42:34.451Z,18.03
2018-04-15T09:43:34.388Z,18.39
2018-04-15T09:45:27.680Z,19.06
2018-04-15T09:46:27.667Z,19.32
2018-04-15T09:48:20.904Z,19.87
2018-04-15T09:49:20.829Z,19.86
2018-04-15T09:51:14.116Z,19.78
2018-04-15T09:52:14.058Z,19.55
2018-04-15T09:54:07.365Z,17.90
2018-04-15T09:55:07.283Z,17.54
2018-04-15T09:57:00.548Z,16.76
2018-04-15T09:58:00.488Z,16.74
2018-04-15T09:59:53.893Z,16.73
2018-04-15T10:00:53.700Z,17.21
2018-04-15T10:02:46.972Z,18.17
2018-04-15T10:03:46.913Z,17.95
2018-04-15T10:05:40.319Z,17.49
2018-04-15T10:06:40.125Z,17.40
2018-04-15T10:08:33.417Z,17.47
2018-04-15T10:09:33.337Z,17.71
2018-04-15T10:11:26.725Z,17.79
2018-04-15T10:12:26.550Z,17.79
2018-04-15T10:14:19.843Z,17.60
2018-04-15T10:15:19.765Z,17.06
2018-04-15T10:17:13.041Z,16.85
2018-04-15T10:18:12.980Z,17.03
2018-04-15T10:20:06.336Z,17.06
2018-04-15T10:21:06.258Z,17.24
2018-04-15T10:22:59.552Z,18.89
2018-04-15T10:23:59.518Z,19.23
2018-04-15T10:25:52.765Z,19.32
2018-04-15T10:26:52.693Z,19.78
2018-04-15T10:28:45.981Z,21.31
2018-04-15T10:29:45.906Z,21.36
2018-04-15T10:31:39.185Z,20.85
2018-04-15T10:32:39.154Z,21.04
2018-04-15T10:34:32.418Z,22.15
2018-04-15T10:35:32.345Z,22.51
2018-04-15T10:37:25.626Z,21.28
2018-04-15T10:38:25.571Z,21.76
2018-04-15T10:40:19.480Z,21.66
2018-04-15T10:41:18.796Z,22.20
2018-04-15T10:43:12.100Z,22.59
2018-04-15T10:44:12.021Z,21.40
2018-04-15T10:46:05.366Z,20.86
2018-04-15T10:47:05.252Z,21.04
2018-04-15T10:48:58.555Z,21.40
2018-04-15T10:49:58.481Z,21.03
2018-04-15T10:51:51.767Z,21.53
2018-04-15T10:52:51.764Z,21.45
2018-04-15T10:54:45.018Z,20.41
2018-04-15T10:55:44.945Z,19.85
2018-04-15T10:57:38.218Z,19.34
2018-04-15T10:58:38.163Z,19.32
2018-04-15T11:00:31.467Z,19.60
2018-04-15T11:01:31.391Z,19.90
2018-04-15T11:03:24.699Z,20.66
2018-04-15T11:04:24.622Z,20.23
2018-04-15T11:06:17.901Z,19.97
2018-04-15T11:07:17.847Z,20.00
2018-04-15T11:09:11.147Z,19.79
2018-04-15T11:10:11.073Z,19.61
2018-04-15T11:12:04.354Z,19.64
2018-04-15T11:13:04.291Z,19.52
2018-04-15T11:14:57.597Z,19.38
2018-04-15T11:15:57.522Z,19.47
2018-04-15T11:17:50.802Z,19.63
2018-04-15T11:18:50.748Z,19.37
2018-04-15T11:20:44.155Z,19.25
2018-04-15T11:21:43.978Z,19.15
2018-04-15T11:23:37.263Z,18.44
2018-04-15T11:24:37.209Z,18.38
2018-04-15T11:26:30.502Z,18.03
2018-04-15T11:27:30.428Z,17.92
2018-04-15T11:29:23.722Z,18.08
2018-04-15T11:30:23.648Z,18.21
2018-04-15T11:32:16.921Z,18.44
2018-04-15T11:33:16.862Z,18.50
2018-04-15T11:35:10.155Z,18.82
2018-04-15T11:36:10.077Z,18.97
2018-04-15T11:38:03.351Z,19.25
2018-04-15T11:39:03.291Z,19.20
2018-04-15T11:40:56.583Z,18.90
2018-04-15T11:41:56.506Z,18.86
2018-04-15T11:43:49.892Z,18.76
2018-04-15T11:44:49.725Z,18.65
2018-04-15T11:46:43.014Z,18.63
2018-04-15T11:47:42.938Z,18.47
2018-04-15T11:49:36.227Z,17.95
2018-04-15T11:50:36.150Z,17.88
2018-04-15T11:52:29.539Z,18.32
2018-04-15T11:53:29.361Z,18.39
2018-04-15T11:55:22.654Z,18.76
2018-04-15T11:56:22.578Z,18.79
2018-04-15T11:58:15.849Z,18.96
2018-04-15T11:59:15.792Z,19.00
2018-04-15T12:01:09.082Z,19.23
2018-04-15T12:02:09.007Z,19.23
2018-04-15T12:04:02.339Z,19.15
2018-04-15T12:05:02.261Z,19.34
2018-04-15T12:06:55.535Z,19.35
2018-04-15T12:07:55.474Z,19.35
2018-04-15T12:09:48.779Z,19.52
2018-04-15T12:10:48.698Z,19.53
2018-04-15T12:12:41.983Z,19.65
2018-04-15T12:13:41.924Z,19.72
2018-04-15T12:15:35.222Z,19.53
2018-04-15T12:16:35.149Z,19.47
2018-04-15T12:18:28.429Z,19.42
2018-04-15T12:19:28.371Z,19.46
2018-04-15T12:21:21.680Z,19.37
2018-04-15T12:22:21.604Z,19.34
2018-04-15T12:24:14.899Z,19.31
2018-04-15T12:25:14.821Z,19.24
2018-04-15T12:27:08.089Z,19.10
2018-04-15T12:28:08.029Z,19.06
2018-04-15T12:30:01.331Z,19.17
2018-04-15T12:31:01.252Z,19.28
2018-04-15T12:32:54.526Z,19.10
2018-04-15T12:33:54.519Z,19.12
2018-04-15T12:35:47.771Z,18.90
2018-04-15T12:36:47.691Z,18.78
2018-04-15T12:38:40.964Z,18.91
2018-04-15T12:39:40.905Z,18.66
2018-04-15T12:41:34.197Z,18.65
2018-04-15T12:42:34.122Z,18.79
2018-04-15T12:44:27.414Z,19.05
2018-04-15T12:45:27.337Z,19.05
2018-04-15T12:47:20.612Z,19.07
2018-04-15T12:48:20.554Z,19.16
2018-04-15T12:50:13.848Z,19.20
2018-04-15T12:51:13.771Z,19.30
2018-04-15T12:53:07.048Z,19.17
2018-04-15T12:54:06.986Z,19.20
2018-04-15T12:56:00.342Z,19.24
2018-04-15T12:57:00.264Z,19.10
2018-04-15T12:58:53.559Z,19.12
2018-04-15T12:59:53.499Z,18.99
2018-04-15T13:01:46.791Z,19.24
2018-04-15T13:02:46.717Z,19.30
2018-04-15T13:04:40.007Z,19.12
2018-04-15T13:05:39.929Z,19.00
2018-04-15T13:07:33.203Z,19.20
2018-04-15T13:08:33.146Z,19.24
2018-04-15T13:10:27.050Z,19.10
2018-04-15T13:11:26.366Z,19.00
2018-04-15T13:13:19.752Z,19.30
2018-04-15T13:14:19.580Z,19.25
2018-04-15T13:16:12.876Z,19.30
2018-04-15T13:17:12.799Z,19.25
2018-04-15T13:19:06.073Z,19.12
2018-04-15T13:20:06.016Z,19.00
2018-04-15T13:21:59.308Z,18.84
2018-04-15T13:22:59.237Z,18.63
2018-04-15T13:24:52.523Z,18.60
2018-04-15T13:25:52.442Z,18.72
2018-04-15T13:27:45.722Z,18.96
2018-04-15T13:28:45.663Z,19.16
2018-04-15T13:30:38.977Z,19.43
2018-04-15T13:31:38.899Z,19.50
2018-04-15T13:33:32.178Z,19.49
2018-04-15T13:34:32.117Z,19.32
2018-04-15T13:36:25.406Z,19.10
2018-04-15T13:37:25.327Z,19.28
2018-04-15T13:39:18.597Z,19.53
2018-04-15T13:40:18.561Z,19.64
2018-04-15T13:42:11.836Z,19.86
2018-04-15T13:43:11.761Z,19.87
2018-04-15T13:45:05.053Z,19.98
2018-04-15T13:46:04.976Z,19.97
2018-04-15T13:47:58.324Z,19.87
2018-04-15T13:48:58.265Z,19.70
2018-04-15T13:50:51.560Z,19.82
2018-04-15T13:51:51.491Z,19.67
2018-04-15T13:53:44.767Z,19.67
2018-04-15T13:54:44.701Z,19.78
2018-04-15T13:56:37.994Z,19.86
2018-04-15T13:57:37.920Z,19.65
2018-04-15T13:59:31.202Z,19.74
2018-04-15T14:00:31.142Z,19.85
2018-04-15T14:02:24.444Z,19.82
2018-04-15T14:03:24.369Z,19.87
2018-04-15T14:05:17.684Z,19.70
2018-04-15T14:06:17.586Z,19.71
2018-04-15T14:08:10.973Z,19.95
2018-04-15T14:09:10.803Z,20.08
2018-04-15T14:11:04.095Z,20.11
2018-04-15T14:12:04.018Z,20.19
2018-04-15T14:13:57.424Z,20.11
2018-04-15T14:14:57.366Z,20.18
2018-04-15T14:16:50.661Z,20.19
2018-04-15T14:17:50.588Z,20.38
2018-04-15T14:19:43.858Z,20.44
2018-04-15T14:20:43.801Z,20.38
2018-04-15T14:22:37.094Z,20.15
2018-04-15T14:23:37.023Z,20.19
2018-04-15T14:25:30.357Z,20.00
2018-04-15T14:26:30.235Z,19.74
2018-04-15T14:28:23.627Z,20.00
2018-04-15T14:29:23.451Z,20.12
2018-04-15T14:31:16.747Z,20.02
2018-04-15T14:32:16.672Z,19.97
2018-04-15T14:34:09.942Z,20.19
2018-04-15T14:35:09.884Z,20.22
2018-04-15T14:37:03.188Z,20.16
2018-04-15T14:38:03.103Z,20.15
2018-04-15T14:39:56.379Z,20.20
2018-04-15T14:40:56.319Z,20.07
2018-04-15T14:42:49.619Z,19.87
2018-04-15T14:43:49.536Z,19.86
2018-04-15T14:45:42.832Z,19.98
2018-04-15T14:46:42.756Z,19.90
2018-04-15T14:48:36.028Z,19.82
2018-04-15T14:49:35.971Z,19.87
2018-04-15T14:51:29.444Z,19.93
2018-04-15T14:52:29.366Z,19.92
2018-04-15T14:54:22.640Z,19.61
2018-04-15T14:55:22.591Z,19.67
2018-04-15T14:57:15.877Z,19.65
2018-04-15T14:58:15.801Z,19.60
2018-04-15T15:00:09.079Z,19.61
2018-04-15T15:01:09.024Z,19.63
2018-04-15T15:03:02.312Z,19.67
2018-04-15T15:04:02.236Z,19.50
2018-04-15T15:05:55.533Z,19.47
2018-04-15T15:06:55.459Z,19.49
2018-04-15T15:08:48.731Z,19.46
2018-04-15T15:09:48.671Z,19.56
2018-04-15T15:11:41.964Z,19.40
2018-04-15T15:12:41.885Z,19.27
2018-04-15T15:14:35.157Z,19.28
2018-04-15T15:15:35.099Z,19.31
2018-04-15T15:17:28.504Z,19.45
2018-04-15T15:18:28.314Z,19.37
2018-04-15T15:20:21.588Z,19.34
2018-04-15T15:21:21.530Z,19.37
2018-04-15T15:23:14.819Z,19.23
2018-04-15T15:24:14.744Z,19.25
2018-04-15T15:26:08.035Z,19.16
2018-04-15T15:27:07.956Z,19.17
2018-04-15T15:29:01.228Z,19.32
2018-04-15T15:30:01.170Z,19.19
2018-04-15T15:31:54.461Z,19.19
2018-04-15T15:32:54.387Z,19.23
2018-04-15T15:34:47.655Z,19.27
2018-04-15T15:35:47.600Z,19.12
2018-04-15T15:37:40.892Z,19.24
2018-04-15T15:38:40.813Z,19.30
2018-04-15T15:40:34.109Z,19.25
2018-04-15T15:41:34.027Z,19.25
2018-04-15T15:43:27.442Z,19.06
2018-04-15T15:44:27.362Z,19.00
2018-04-15T15:46:20.768Z,19.15
2018-04-15T15:47:20.615Z,19.16
2018-04-15T15:49:13.844Z,19.19
2018-04-15T15:50:13.785Z,19.28
2018-04-15T15:52:07.077Z,19.37
2018-04-15T15:53:06.997Z,19.42
2018-04-15T15:55:00.270Z,19.38
2018-04-15T15:56:00.209Z,19.35
2018-04-15T15:57:53.500Z,19.31
2018-04-15T15:58:53.422Z,19.34
2018-04-15T16:00:46.697Z,19.27
2018-04-15T16:01:46.638Z,19.17
2018-04-15T16:03:39.928Z,18.97
2018-04-15T16:04:39.848Z,18.99
2018-04-15T16:06:33.140Z,19.00
2018-04-15T16:07:33.060Z,19.05
2018-04-15T16:09:26.344Z,19.10
2018-04-15T16:10:26.283Z,19.16
2018-04-15T16:12:19.573Z,19.35
2018-04-15T16:13:19.497Z,19.32
2018-04-15T16:15:12.769Z,19.32
2018-04-15T16:16:12.710Z,19.34
2018-04-15T16:18:06.011Z,19.43
2018-04-15T16:19:05.931Z,19.43
2018-04-15T16:20:59.204Z,19.43
2018-04-15T16:21:59.145Z,19.42
2018-04-15T16:23:52.437Z,19.47
2018-04-15T16:24:52.358Z,19.42
2018-04-15T16:26:45.651Z,19.38
2018-04-15T16:27:45.574Z,19.35
2018-04-15T16:29:38.851Z,19.31
2018-04-15T16:30:38.789Z,19.37
2018-04-15T16:32:32.081Z,19.38
2018-04-15T16:33:32.008Z,19.35
2018-04-15T16:35:25.426Z,19.31
2018-04-15T16:36:25.367Z,19.37
2018-04-15T16:38:18.663Z,19.42
2018-04-15T16:39:18.582Z,19.40
2018-04-15T16:41:11.869Z,19.23
2018-04-15T16:42:11.797Z,19.23
2018-04-15T16:44:05.090Z,19.19
2018-04-15T16:45:05.011Z,19.27
2018-04-15T16:46:58.305Z,19.20
2018-04-15T16:47:58.271Z,19.20
2018-04-15T16:49:51.497Z,19.19
2018-04-15T16:50:51.511Z,19.17
2018-04-15T16:52:44.733Z,19.24
2018-04-15T16:53:44.653Z,19.13
2018-04-15T16:55:37.922Z,19.20
2018-04-15T16:56:37.873Z,19.10
2018-04-15T16:58:31.154Z,19.10
2018-04-15T16:59:31.075Z,19.06
2018-04-15T17:01:24.349Z,19.15
2018-04-15T17:02:24.293Z,19.15
2018-04-15T17:04:17.693Z,19.07
2018-04-15T17:05:17.503Z,19.10
2018-04-15T17:07:10.805Z,18.96
2018-04-15T17:08:10.726Z,19.09
2018-04-15T17:10:04.000Z,19.00
2018-04-15T17:11:03.950Z,18.99
2018-04-15T17:12:57.239Z,19.05
2018-04-15T17:13:57.163Z,18.91
2018-04-15T17:15:50.457Z,18.82
2018-04-15T17:16:50.374Z,18.94
2018-04-15T17:18:43.676Z,18.87
2018-04-15T17:19:43.595Z,18.90
2018-04-15T17:21:36.866Z,18.90
2018-04-15T17:22:36.871Z,18.96
2018-04-15T17:24:30.100Z,18.87
2018-04-15T17:25:30.034Z,18.89
2018-04-15T17:27:23.455Z,18.87
2018-04-15T17:28:23.359Z,18.93
2018-04-15T17:30:16.643Z,18.78
2018-04-15T17:31:16.579Z,18.78
2018-04-15T17:33:09.879Z,18.78
2018-04-15T17:34:09.801Z,18.81
2018-04-15T17:36:03.084Z,18.71
2018-04-15T17:37:03.023Z,18.74
2018-04-15T17:38:56.331Z,18.71
2018-04-15T17:39:56.253Z,18.66
2018-04-15T17:41:49.536Z,18.71
2018-04-15T17:42:49.472Z,18.65
2018-04-15T17:44:42.773Z,18.72
2018-04-15T17:45:42.695Z,18.68
2018-04-15T17:47:36.023Z,18.78
2018-04-15T17:48:35.944Z,18.72
2018-04-15T17:50:29.351Z,18.56
2018-04-15T17:51:29.175Z,18.69
2018-04-15T17:53:22.482Z,18.61
2018-04-15T17:54:22.403Z,18.65
2018-04-15T17:56:15.685Z,18.65
2018-04-15T17:57:15.624Z,18.65
2018-04-15T17:59:08.929Z,18.61
2018-04-15T18:00:08.845Z,18.53
2018-04-15T18:02:02.126Z,18.66
2018-04-15T18:03:02.069Z,18.57
2018-04-15T18:04:55.465Z,18.56
2018-04-15T18:05:55.362Z,18.50
2018-04-15T18:07:48.660Z,18.50
2018-04-15T18:08:48.583Z,18.54
2018-04-15T18:10:41.912Z,18.47
2018-04-15T18:11:41.802Z,18.44
2018-04-15T18:13:35.101Z,18.51
2018-04-15T18:14:35.022Z,18.49
2018-04-15T18:16:28.302Z,18.38
2018-04-15T18:17:28.242Z,18.36
2018-04-15T18:19:21.542Z,18.35
2018-04-15T18:20:21.462Z,18.32
2018-04-15T18:22:14.744Z,18.34
2018-04-15T18:23:14.682Z,18.27
2018-04-15T18:25:07.982Z,18.29
2018-04-15T18:26:07.904Z,18.23
2018-04-15T18:28:01.251Z,18.19
2018-04-15T18:29:01.124Z,18.16
2018-04-15T18:30:54.404Z,18.19
2018-04-15T18:31:54.343Z,18.21
2018-04-15T18:33:47.745Z,18.08
2018-04-15T18:34:47.561Z,18.13